Sherbro International Airport

Jump to: basic info | weather | comments

Related pages: nearby airports | nearby navaids | notams | map

Basic information (top)

Codes: BTE GFBN
Location: lon 7.532420, lat -12.518900, elev 14 ft / 4 m msl
Status: medium_airport
Scheduled airline service: yes
Links: Wikipedia Mobile

Weather (top)

Current conditions for Lungi International Airport 77nm (142km) NNW (rec'd 2014/10/22 15:00Z):

GFLL 221500Z 26006KT 9999 BKN014 FEW027CB 31/25 Q1012 RMK CB-NE

Airport forecast for Lungi International Airport 77nm (142km) NNW (rec'd 2014/10/22 18:00Z):

TAF GFLL 221600Z 2218/2224 24010KT 9999 BKN014 SCT014 FEW027CB PROB30 
      TEMPO 2220/2304 12004KT 7000 TS/TSRA BKN010 FEW026CB 
      BECMG 2305/2307 12004KT 4000 BR BKN009 
      TEMPO 2308/2314 27010KT 8000 TSRA BKN010 FM1?500 26008KT 9999 BKN012 FEW027CB

Latest comments (top)

No comments yet for Sherbro International Airport

More... (top)

See also NOTAMs and nearby airports and navaids, or visit the Sherbro International Airport page at the main OurAirports website..